Time;durP1;ratioP1;P1;durP2;ratioP2;P2;SDS_P1;SDS_P2;PMS_P1;PMS_P2;Temp;Humidity;BMP_temperature;BMP_pressure;BME280_temperature;BME280_humidity;BME280_pressure;Samples;Min_cycle;Max_cycle;Signal;HPM_P1;HPM_P2
2022/08/10 00:00:48;;;;;;;;;;;13.70;99.90;;;;;;6195863;23;19920;-71
2022/08/10 00:03:14;;;;;;;;;;;13.70;99.90;;;;;;6221354;23;20002;-74
2022/08/10 00:05:39;;;;;;;;;;;13.70;99.90;;;;;;6171931;23;19994;-75
2022/08/10 00:08:05;;;;;;;;;;;13.70;99.90;;;;;;6196192;23;20263;-75
2022/08/10 00:10:31;;;;;;;;;;;13.60;99.90;;;;;;6220916;23;19926;-75
2022/08/10 00:12:56;;;;;;;;;;;13.60;99.90;;;;;;6196434;23;19924;-75
2022/08/10 00:15:22;;;;;;;;;;;13.60;99.90;;;;;;6221284;23;19926;-75
2022/08/10 00:17:48;;;;;;;;;;;13.50;99.90;;;;;;6196051;22;19985;-74
2022/08/10 00:20:13;;;;;;;;;;;13.50;99.90;;;;;;6221414;23;19966;-75
2022/08/10 00:22:39;;;;;;;;;;;13.40;99.90;;;;;;6221289;23;19920;-75
2022/08/10 00:25:05;;;;;;;;;;;13.40;99.90;;;;;;6220887;23;19955;-72
2022/08/10 00:27:31;;;;;;;;;;;13.40;99.90;;;;;;6195536;22;19926;-73
2022/08/10 00:29:57;;;;;;;;;;;13.40;99.90;;;;;;6196392;23;19924;-73
2022/08/10 00:32:22;;;;;;;;;;;13.40;99.90;;;;;;6221195;23;19942;-73
2022/08/10 00:34:48;;;;;;;;;;;13.40;99.90;;;;;;6221171;23;19951;-73
2022/08/10 00:37:14;;;;;;;;;;;13.40;99.90;;;;;;6221150;23;19924;-73
2022/08/10 00:39:40;;;;;;;;;;;13.40;99.90;;;;;;6220903;23;19926;-73
2022/08/10 00:42:07;;;;;;;;;;;13.40;99.90;;;;;;6247901;23;20377;-73
2022/08/10 00:44:33;;;;;;;;;;;13.50;99.90;;;;;;6220642;23;20227;-74
2022/08/10 00:46:59;;;;;;;;;;;13.40;99.90;;;;;;6221085;23;19955;-72
2022/08/10 00:49:25;;;;;;;;;;;13.40;99.90;;;;;;6220814;23;19927;-73
2022/08/10 00:51:51;;;;;;;;;;;13.50;99.90;;;;;;6196254;23;19954;-72
2022/08/10 00:54:17;;;;;;;;;;;13.50;99.90;;;;;;6195688;23;20239;-73
2022/08/10 00:56:43;;;;;;;;;;;13.60;99.90;;;;;;6220905;23;19994;-73
2022/08/10 00:59:08;;;;;;;;;;;13.60;99.90;;;;;;6220330;23;19920;-74
2022/08/10 01:01:34;;;;;;;;;;;13.60;99.90;;;;;;6195700;23;19920;-72
2022/08/10 01:04:00;;;;;;;;;;;13.60;99.90;;;;;;6220770;23;19920;-74
2022/08/10 01:06:33;;;;;;;;;;;13.60;99.90;;;;;;6195295;23;19919;-74
2022/08/10 01:09:09;;;;;;;;;;;13.60;99.90;;;;;;6220777;23;19927;-73
2022/08/10 01:11:45;;;;;;;;;;;13.60;99.90;;;;;;6220688;23;19962;-74
2022/08/10 01:14:11;;;;;;;;;;;13.60;99.90;;;;;;6220722;23;20331;-73
2022/08/10 01:16:41;;;;;;;;;;;13.60;99.90;;;;;;6220634;23;19927;-73
2022/08/10 01:19:19;;;;;;;;;;;13.50;99.90;;;;;;6220570;23;19970;-74
2022/08/10 01:21:45;;;;;;;;;;;13.50;99.90;;;;;;6220788;23;19924;-73
2022/08/10 01:24:29;;;;;;;;;;;13.50;99.90;;;;;;6220549;23;19923;-74
2022/08/10 01:27:14;;;;;;;;;;;13.50;99.90;;;;;;6219973;23;20370;-74
2022/08/10 01:30:00;;;;;;;;;;;13.50;99.90;;;;;;6195389;23;19998;-74
2022/08/10 01:32:31;;;;;;;;;;;13.40;99.90;;;;;;6220222;23;19970;-74
2022/08/10 01:35:23;;;;;;;;;;;13.40;99.90;;;;;;6220512;23;19919;-74
2022/08/10 01:38:04;;;;;;;;;;;13.30;99.90;;;;;;6214502;22;19919;-75
2022/08/10 01:40:31;;;;;;;;;;;13.30;99.90;;;;;;6195421;23;19923;-74
2022/08/10 01:43:01;;;;;;;;;;;13.30;99.90;;;;;;6220442;23;19930;-74
2022/08/10 01:45:27;;;;;;;;;;;13.20;99.90;;;;;;6219999;23;19969;-74
2022/08/10 01:50:40;;;;;;;;;;;13.20;99.90;;;;;;6220371;23;19959;-73
2022/08/10 01:53:09;;;;;;;;;;;13.20;99.90;;;;;;6220455;23;19919;-73
2022/08/10 01:55:35;;;;;;;;;;;13.20;99.90;;;;;;6220192;23;20238;-74
2022/08/10 01:58:02;;;;;;;;;;;13.20;99.90;;;;;;6195286;23;19958;-74
2022/08/10 02:00:29;;;;;;;;;;;13.10;99.90;;;;;;6219807;23;19935;-74
2022/08/10 02:02:55;;;;;;;;;;;13.10;99.90;;;;;;6220293;23;20318;-73
2022/08/10 02:05:23;;;;;;;;;;;13.10;99.90;;;;;;6195039;23;19919;-73
2022/08/10 02:07:49;;;;;;;;;;;13.10;99.90;;;;;;6220129;22;19926;-73
2022/08/10 02:10:15;;;;;;;;;;;13.10;99.90;;;;;;6195369;23;19923;-74
2022/08/10 02:12:42;;;;;;;;;;;13.10;99.90;;;;;;6195130;23;19919;-73
2022/08/10 02:15:11;;;;;;;;;;;13.00;99.90;;;;;;6220189;23;19924;-73
2022/08/10 02:17:42;;;;;;;;;;;13.00;99.90;;;;;;6219989;23;19920;-73
2022/08/10 02:20:09;;;;;;;;;;;13.00;99.90;;;;;;6220073;23;20262;-74
2022/08/10 02:22:36;;;;;;;;;;;13.00;99.90;;;;;;6219995;23;19965;-73
2022/08/10 02:25:06;;;;;;;;;;;13.10;99.90;;;;;;6219951;23;19919;-74
2022/08/10 02:27:32;;;;;;;;;;;13.10;99.90;;;;;;6194877;23;19982;-73
2022/08/10 02:29:59;;;;;;;;;;;13.10;99.90;;;;;;6194937;23;19947;-74
2022/08/10 02:32:25;;;;;;;;;;;13.10;99.90;;;;;;6194858;23;20309;-75
2022/08/10 02:34:51;;;;;;;;;;;13.10;99.90;;;;;;6219838;23;19926;-75
2022/08/10 02:37:18;;;;;;;;;;;13.10;99.90;;;;;;6194735;23;20088;-75
2022/08/10 02:39:44;;;;;;;;;;;13.10;99.90;;;;;;6219918;23;19919;-75
2022/08/10 02:42:09;;;;;;;;;;;13.10;99.90;;;;;;6219616;23;20307;-75
2022/08/10 02:44:42;;;;;;;;;;;13.10;99.90;;;;;;6219644;23;19926;-74
2022/08/10 02:47:14;;;;;;;;;;;13.10;99.90;;;;;;6195011;23;19919;-75
2022/08/10 02:49:47;;;;;;;;;;;13.00;99.90;;;;;;6219808;23;19919;-74
2022/08/10 02:52:26;;;;;;;;;;;13.00;99.90;;;;;;6220050;23;20299;-75
2022/08/10 02:54:56;;;;;;;;;;;13.00;99.90;;;;;;6219912;23;19920;-76
2022/08/10 02:57:26;;;;;;;;;;;13.00;99.90;;;;;;6220107;23;19963;-74
2022/08/10 02:59:53;;;;;;;;;;;13.00;99.90;;;;;;6246552;22;20312;-74
2022/08/10 03:02:24;;;;;;;;;;;13.00;99.90;;;;;;6219822;23;19926;-74
2022/08/10 03:04:52;;;;;;;;;;;13.00;99.90;;;;;;6219796;23;19926;-75
2022/08/10 03:07:19;;;;;;;;;;;13.00;99.90;;;;;;6195070;23;19920;-75
2022/08/10 03:09:46;;;;;;;;;;;13.00;99.90;;;;;;6219753;23;19927;-75
2022/08/10 03:12:12;;;;;;;;;;;13.00;99.90;;;;;;6219884;23;20223;-74
2022/08/10 03:14:38;;;;;;;;;;;13.00;99.90;;;;;;6219851;23;19919;-74
2022/08/10 03:17:04;;;;;;;;;;;13.00;99.90;;;;;;6195857;23;19943;-76
2022/08/10 03:19:31;;;;;;;;;;;13.00;99.90;;;;;;6221296;23;19919;-74
2022/08/10 03:21:58;;;;;;;;;;;13.00;99.90;;;;;;6196803;23;19923;-75
2022/08/10 03:24:25;;;;;;;;;;;13.00;99.90;;;;;;6221941;23;19994;-76
2022/08/10 03:26:51;;;;;;;;;;;12.90;99.90;;;;;;6221578;23;19924;-74
2022/08/10 03:29:18;;;;;;;;;;;12.90;99.90;;;;;;6196496;23;19923;-74
2022/08/10 03:31:44;;;;;;;;;;;12.90;99.90;;;;;;6196620;23;19927;-75
2022/08/10 03:34:10;;;;;;;;;;;12.90;99.90;;;;;;6221605;23;19920;-75
2022/08/10 03:36:35;;;;;;;;;;;12.90;99.90;;;;;;6221679;23;19998;-74
2022/08/10 03:39:01;;;;;;;;;;;12.80;99.90;;;;;;6196433;23;19920;-74
2022/08/10 03:41:33;;;;;;;;;;;12.90;99.90;;;;;;6221285;23;19923;-74
2022/08/10 03:44:00;;;;;;;;;;;12.80;99.90;;;;;;6248414;23;19923;-74
2022/08/10 03:46:27;;;;;;;;;;;12.80;99.90;;;;;;6196433;23;19927;-74
2022/08/10 03:48:54;;;;;;;;;;;12.80;99.90;;;;;;6171537;23;19927;-75
2022/08/10 03:51:21;;;;;;;;;;;12.70;99.90;;;;;;6221461;23;20330;-74
2022/08/10 03:53:47;;;;;;;;;;;12.70;99.90;;;;;;6221324;23;19920;-76
2022/08/10 03:56:13;;;;;;;;;;;12.60;99.90;;;;;;6196504;23;20300;-73
2022/08/10 03:58:38;;;;;;;;;;;12.60;99.90;;;;;;6221230;23;19994;-75
2022/08/10 04:01:04;;;;;;;;;;;12.70;99.90;;;;;;6221293;23;19924;-74
2022/08/10 04:03:30;;;;;;;;;;;12.50;99.90;;;;;;6221534;23;19921;-73
2022/08/10 04:05:55;;;;;;;;;;;12.50;99.90;;;;;;6196256;23;19924;-74
2022/08/10 04:08:21;;;;;;;;;;;12.50;99.90;;;;;;6221758;23;19920;-76
2022/08/10 04:10:46;;;;;;;;;;;12.50;99.90;;;;;;6221281;23;19927;-74
2022/08/10 04:13:12;;;;;;;;;;;12.50;99.90;;;;;;6196604;23;19990;-76
2022/08/10 04:15:38;;;;;;;;;;;12.50;99.90;;;;;;6221223;23;19919;-74
2022/08/10 04:18:03;;;;;;;;;;;12.40;99.90;;;;;;6196052;22;20246;-75
2022/08/10 04:20:44;;;;;;;;;;;12.50;99.90;;;;;;6248015;23;19920;-73
2022/08/10 04:23:14;;;;;;;;;;;12.50;99.90;;;;;;6221440;23;19946;-75
2022/08/10 04:25:40;;;;;;;;;;;12.50;99.90;;;;;;6221260;23;19919;-75
2022/08/10 04:28:07;;;;;;;;;;;12.50;99.90;;;;;;6220616;22;19919;-74
2022/08/10 04:30:34;;;;;;;;;;;12.60;99.90;;;;;;6221145;23;19920;-75
2022/08/10 04:33:01;;;;;;;;;;;12.60;99.90;;;;;;6220946;23;19934;-74
2022/08/10 04:35:27;;;;;;;;;;;12.70;99.90;;;;;;6220640;23;19919;-74
2022/08/10 04:37:54;;;;;;;;;;;12.70;99.90;;;;;;6195936;22;19923;-75
2022/08/10 04:40:20;;;;;;;;;;;12.70;99.90;;;;;;6195977;23;19934;-74
2022/08/10 04:42:46;;;;;;;;;;;12.80;99.90;;;;;;6195936;23;19920;-73
2022/08/10 04:45:12;;;;;;;;;;;12.90;99.90;;;;;;6220911;23;19920;-75
2022/08/10 04:47:38;;;;;;;;;;;12.90;99.90;;;;;;6220946;23;20335;-76
2022/08/10 04:50:04;;;;;;;;;;;12.90;99.90;;;;;;6170833;23;19931;-75
2022/08/10 04:52:29;;;;;;;;;;;13.00;99.90;;;;;;6220958;23;19920;-75
2022/08/10 04:54:55;;;;;;;;;;;13.00;99.90;;;;;;6220435;23;20254;-75
2022/08/10 04:57:21;;;;;;;;;;;13.00;99.90;;;;;;6220613;23;19923;-75
2022/08/10 04:59:47;;;;;;;;;;;13.10;99.90;;;;;;6220404;23;19994;-75
2022/08/10 05:02:13;;;;;;;;;;;13.10;99.90;;;;;;6220583;23;20390;-74
2022/08/10 05:04:38;;;;;;;;;;;13.20;99.90;;;;;;6195801;23;19919;-74
2022/08/10 05:07:12;;;;;;;;;;;13.20;99.90;;;;;;6247507;23;19926;-74
2022/08/10 05:09:38;;;;;;;;;;;13.30;99.90;;;;;;6220651;23;19930;-74
2022/08/10 05:12:04;;;;;;;;;;;13.40;99.90;;;;;;6220706;23;19927;-74
2022/08/10 05:14:30;;;;;;;;;;;13.40;99.90;;;;;;6195675;23;19919;-75
2022/08/10 05:16:55;;;;;;;;;;;13.50;99.90;;;;;;6195550;23;19919;-75
2022/08/10 05:19:21;;;;;;;;;;;13.60;99.90;;;;;;6195629;23;19920;-74
2022/08/10 05:21:46;;;;;;;;;;;13.60;99.90;;;;;;6220281;23;19920;-75
2022/08/10 05:24:12;;;;;;;;;;;13.60;99.90;;;;;;6220479;23;19926;-74
2022/08/10 05:26:37;;;;;;;;;;;13.70;99.90;;;;;;6220495;23;19919;-76
2022/08/10 05:29:03;;;;;;;;;;;13.70;99.90;;;;;;6220574;23;20326;-74
2022/08/10 05:31:29;;;;;;;;;;;13.80;99.90;;;;;;6195429;23;19995;-75
2022/08/10 05:33:54;;;;;;;;;;;13.80;99.90;;;;;;6195528;23;19969;-74
2022/08/10 05:36:20;;;;;;;;;;;13.90;99.90;;;;;;6220549;23;19995;-74
2022/08/10 05:38:47;;;;;;;;;;;14.10;99.90;;;;;;6195083;23;19919;-74
2022/08/10 05:41:13;;;;;;;;;;;14.20;99.90;;;;;;6220452;23;19919;-76
2022/08/10 05:43:39;;;;;;;;;;;14.30;99.90;;;;;;6220377;23;20249;-74
2022/08/10 05:46:05;;;;;;;;;;;14.50;99.90;;;;;;6220230;23;19930;-74
2022/08/10 05:48:30;;;;;;;;;;;14.70;99.90;;;;;;6220434;23;20246;-75
2022/08/10 05:50:56;;;;;;;;;;;14.90;99.90;;;;;;6220478;23;19966;-74
2022/08/10 05:53:22;;;;;;;;;;;15.10;99.90;;;;;;6220470;23;19926;-74
2022/08/10 05:55:47;;;;;;;;;;;15.40;99.90;;;;;;6220185;23;20017;-74
2022/08/10 05:58:13;;;;;;;;;;;15.60;99.90;;;;;;6195200;22;19981;-74
2022/08/10 06:00:39;;;;;;;;;;;15.90;99.90;;;;;;6195208;23;20354;-74
2022/08/10 06:03:07;;;;;;;;;;;16.10;99.90;;;;;;6247054;23;19920;-74
2022/08/10 06:05:35;;;;;;;;;;;16.30;99.90;;;;;;6220230;23;19973;-75
2022/08/10 06:08:52;;;;;;;;;;;;;;;;;;;;;
2022/08/10 06:11:37;;;;;;;;;;;16.70;99.90;;;;;;6219655;23;20307;-76
2022/08/10 06:17:26;;;;;;;;;;;17.40;99.90;;;;;;6217971;23;20343;-77
2022/08/10 06:20:11;;;;;;;;;;;17.60;99.90;;;;;;6219032;23;19915;-75
2022/08/10 06:22:46;;;;;;;;;;;17.80;99.90;;;;;;6196682;23;19923;-76
2022/08/10 08:38:34;;;;;;;;;;;23.50;99.90;;;;;;6244754;22;20366;-74
2022/08/10 08:41:15;;;;;;;;;;;23.70;99.90;;;;;;6165838;23;19967;-74
2022/08/10 08:43:43;;;;;;;;;;;23.90;99.90;;;;;;6190903;23;19920;-74
2022/08/10 08:49:39;;;;;;;;;;;24.10;99.90;;;;;;6208252;23;19926;-73
2022/08/10 08:52:36;;;;;;;;;;;24.20;99.90;;;;;;6165420;23;19919;-74
2022/08/10 08:55:11;;;;;;;;;;;24.10;99.90;;;;;;6164723;23;20239;-71
2022/08/10 08:58:00;;;;;;;;;;;23.90;99.90;;;;;;6190311;23;20354;-73
2022/08/10 09:13:38;;;;;;;;;;;24.00;99.90;;;;;;6216520;23;19915;-76
2022/08/10 09:16:35;;;;;;;;;;;23.90;99.90;;;;;;6190476;23;20331;-78
2022/08/10 09:25:50;;;;;;;;;;;24.20;99.90;;;;;;6216671;23;20289;-72
2022/08/10 09:28:47;;;;;;;;;;;24.50;99.90;;;;;;6189974;23;20362;-78
2022/08/10 18:16:12;;;;;;;;;;;21.50;99.90;;;;;;6243979;23;20258;-75
2022/08/10 19:30:19;;;;;;;;;;;19.50;99.90;;;;;;6240849;22;19919;-77
2022/08/10 19:33:03;;;;;;;;;;;19.40;99.90;;;;;;6249273;22;20304;-70
2022/08/10 19:35:28;;;;;;;;;;;19.30;99.90;;;;;;6223840;22;19915;-69
2022/08/10 19:38:13;;;;;;;;;;;19.20;99.90;;;;;;6224465;22;19920;-69
2022/08/10 19:40:59;;;;;;;;;;;19.20;99.90;;;;;;6249232;22;19916;-68
2022/08/10 19:43:30;;;;;;;;;;;19.10;99.90;;;;;;6275197;22;19921;-68
2022/08/10 19:46:00;;;;;;;;;;;19.00;99.90;;;;;;6249361;22;19915;-68
2022/08/10 19:48:37;;;;;;;;;;;18.90;99.90;;;;;;6249245;22;19969;-68
2022/08/10 19:51:07;;;;;;;;;;;18.80;99.90;;;;;;6276648;22;19931;-68
2022/08/10 19:53:51;;;;;;;;;;;18.70;99.90;;;;;;6249030;22;19923;-67
2022/08/10 19:56:17;;;;;;;;;;;18.60;99.90;;;;;;6249468;22;19919;-69
2022/08/10 19:59:03;;;;;;;;;;;18.50;99.90;;;;;;6250373;22;19930;-71
2022/08/10 20:01:28;;;;;;;;;;;18.50;99.90;;;;;;6277091;22;19925;-69
2022/08/10 20:04:03;;;;;;;;;;;18.40;99.90;;;;;;6251237;22;19919;-69
2022/08/10 20:06:43;;;;;;;;;;;18.30;99.90;;;;;;6251213;22;19919;-69
2022/08/10 20:09:28;;;;;;;;;;;18.20;99.90;;;;;;6251041;22;19956;-69
2022/08/10 20:11:56;;;;;;;;;;;18.20;99.90;;;;;;6251179;22;19926;-69
2022/08/10 20:14:25;;;;;;;;;;;18.20;99.90;;;;;;6277856;22;19929;-68
2022/08/10 20:16:53;;;;;;;;;;;18.10;99.90;;;;;;6225877;22;19919;-69
2022/08/10 20:19:22;;;;;;;;;;;18.00;99.90;;;;;;6225916;22;20302;-70
2022/08/10 20:21:57;;;;;;;;;;;18.00;99.90;;;;;;6250788;22;19916;-69
2022/08/10 20:24:22;;;;;;;;;;;18.00;99.90;;;;;;6225921;22;20262;-70
2022/08/10 20:26:51;;;;;;;;;;;18.00;99.90;;;;;;6251094;22;19919;-69
2022/08/10 20:29:19;;;;;;;;;;;18.00;99.90;;;;;;6250900;22;19994;-69
2022/08/10 20:31:51;;;;;;;;;;;17.90;99.90;;;;;;6250699;22;20326;-69
2022/08/10 20:34:21;;;;;;;;;;;17.90;99.90;;;;;;6277881;22;19998;-69
2022/08/10 20:37:01;;;;;;;;;;;17.90;99.90;;;;;;6250511;22;19951;-69
2022/08/10 20:39:42;;;;;;;;;;;17.90;99.90;;;;;;6276354;22;19919;-71
2022/08/10 20:42:11;;;;;;;;;;;17.80;99.90;;;;;;6250882;22;19926;-70
2022/08/10 20:44:39;;;;;;;;;;;17.80;99.90;;;;;;6277965;22;19919;-69
2022/08/10 20:47:14;;;;;;;;;;;17.80;99.90;;;;;;6250245;22;19915;-68
2022/08/10 20:50:02;;;;;;;;;;;17.80;99.90;;;;;;6249899;22;19922;-69
2022/08/10 20:52:28;;;;;;;;;;;17.80;99.90;;;;;;6225695;22;19930;-69
2022/08/10 20:55:01;;;;;;;;;;;17.70;99.90;;;;;;6250029;22;19922;-68
2022/08/10 20:57:38;;;;;;;;;;;17.70;99.90;;;;;;6250707;22;19919;-69
2022/08/10 21:00:11;;;;;;;;;;;17.70;99.90;;;;;;6250433;22;20349;-70
2022/08/10 21:02:56;;;;;;;;;;;17.60;99.90;;;;;;6251137;22;19915;-70
2022/08/10 21:05:28;;;;;;;;;;;17.60;99.90;;;;;;6224983;22;19951;-70
2022/08/10 21:08:09;;;;;;;;;;;17.60;99.90;;;;;;6250631;22;19938;-71
2022/08/10 21:10:44;;;;;;;;;;;17.50;99.90;;;;;;6277420;22;19965;-68
2022/08/10 21:13:28;;;;;;;;;;;17.50;99.90;;;;;;6224803;22;20318;-71
2022/08/10 21:16:12;;;;;;;;;;;17.50;99.90;;;;;;6277251;22;19972;-69
2022/08/10 21:18:37;;;;;;;;;;;17.40;99.90;;;;;;6251620;22;19925;-68
2022/08/10 21:21:12;;;;;;;;;;;17.30;99.90;;;;;;6251751;22;19990;-70
2022/08/10 21:23:40;;;;;;;;;;;17.20;99.90;;;;;;6251116;22;19923;-73
2022/08/10 22:51:52;;;;;;;;;;;16.30;99.90;;;;;;6250353;22;19954;-72
2022/08/10 23:00:08;;;;;;;;;;;16.10;99.90;;;;;;6250249;22;19919;-72
2022/08/10 23:02:34;;;;;;;;;;;16.10;99.90;;;;;;6250163;22;19926;-71
2022/08/10 23:05:11;;;;;;;;;;;16.10;99.90;;;;;;6250008;22;19919;-71
2022/08/10 23:07:45;;;;;;;;;;;16.00;99.90;;;;;;6250497;22;19965;-72
2022/08/10 23:10:11;;;;;;;;;;;16.00;99.90;;;;;;6250581;22;19919;-73
2022/08/10 23:12:46;;;;;;;;;;;16.00;99.90;;;;;;6250417;22;19925;-73
2022/08/10 23:20:57;;;;;;;;;;;16.00;99.90;;;;;;6250132;22;19926;-73
2022/08/10 23:23:24;;;;;;;;;;;16.00;99.90;;;;;;6225007;22;19923;-72
2022/08/10 23:25:51;;;;;;;;;;;16.00;99.90;;;;;;6250278;22;20330;-72
2022/08/10 23:28:18;;;;;;;;;;;15.90;99.90;;;;;;6250463;22;20338;-74
2022/08/10 23:30:45;;;;;;;;;;;15.90;99.90;;;;;;6250298;22;19949;-72
2022/08/10 23:33:11;;;;;;;;;;;15.90;99.90;;;;;;6250612;22;19919;-73
2022/08/10 23:35:43;;;;;;;;;;;15.90;99.90;;;;;;6226974;22;19930;-73
2022/08/10 23:38:11;;;;;;;;;;;15.90;99.90;;;;;;6252617;22;19919;-73
2022/08/10 23:40:41;;;;;;;;;;;15.90;99.90;;;;;;6252039;22;20327;-73
2022/08/10 23:43:12;;;;;;;;;;;15.90;99.90;;;;;;6253148;22;19990;-73
2022/08/10 23:45:38;;;;;;;;;;;15.90;99.90;;;;;;6252037;22;20245;-71
2022/08/10 23:48:04;;;;;;;;;;;15.90;99.90;;;;;;6277944;22;19920;-72
2022/08/10 23:50:31;;;;;;;;;;;15.90;99.90;;;;;;6251984;22;19942;-72
2022/08/10 23:53:00;;;;;;;;;;;15.90;99.90;;;;;;6252161;22;19919;-72
2022/08/10 23:55:35;;;;;;;;;;;15.90;99.90;;;;;;6278903;22;19919;-73
2022/08/10 23:58:04;;;;;;;;;;;15.90;99.90;;;;;;6226750;22;19919;-73
